Time;durP1;ratioP1;P1;durP2;ratioP2;P2;SDS_P1;SDS_P2;PMS_P1;PMS_P2;Temp;Humidity;BMP_temperature;BMP_pressure;BME280_temperature;BME280_humidity;BME280_pressure;Samples;Min_cycle;Max_cycle;Signal;HPM_P1;HPM_P2
2023/09/01 00:01:46;;;;;;;4.00;1.50;;;11.00;99.90;;;;;;4925490;29;20500;-64
2023/09/01 00:04:12;;;;;;;7.55;1.55;;;11.00;99.90;;;;;;4925645;29;20086;-65
2023/09/01 00:06:38;;;;;;;5.45;1.33;;;11.00;99.90;;;;;;4925458;29;20044;-64
2023/09/01 00:09:04;;;;;;;5.75;1.80;;;11.00;99.90;;;;;;4909858;29;20048;-65
2023/09/01 00:11:29;;;;;;;6.10;1.60;;;10.90;99.90;;;;;;4894531;29;20055;-64
2023/09/01 00:13:55;;;;;;;8.38;1.80;;;10.90;99.90;;;;;;4925391;29;20032;-65
2023/09/01 00:16:21;;;;;;;7.20;2.38;;;11.00;99.90;;;;;;4925558;29;20067;-64
2023/09/01 00:18:47;;;;;;;8.73;1.70;;;11.00;99.90;;;;;;4923788;29;20047;-65
2023/09/01 00:21:12;;;;;;;7.25;1.85;;;11.00;99.90;;;;;;4912254;29;20044;-65
2023/09/01 00:23:38;;;;;;;6.35;1.90;;;11.00;99.90;;;;;;4898207;29;20050;-65
2023/09/01 00:26:04;;;;;;;6.60;1.70;;;11.10;99.90;;;;;;4912961;29;20549;-64
2023/09/01 00:28:29;;;;;;;5.10;1.60;;;11.10;99.90;;;;;;4912532;29;20533;-64
2023/09/01 00:30:57;;;;;;;6.38;1.80;;;11.10;99.90;;;;;;4914424;29;20183;-65
2023/09/01 00:33:30;;;;;;;7.47;1.92;;;11.00;99.90;;;;;;4896957;29;20585;-65
2023/09/01 00:35:57;;;;;;;7.80;2.15;;;11.00;99.90;;;;;;4915767;29;20432;-65
2023/09/01 00:38:26;;;;;;;7.55;1.85;;;10.90;99.90;;;;;;4898546;29;20111;-65
2023/09/01 00:40:53;;;;;;;3.47;1.65;;;10.90;99.90;;;;;;4914283;29;20044;-65
2023/09/01 00:43:18;;;;;;;3.75;1.83;;;10.80;99.90;;;;;;4896727;29;20054;-65
2023/09/01 00:45:44;;;;;;;5.95;2.05;;;10.80;99.90;;;;;;4912476;29;20059;-65
2023/09/01 00:48:12;;;;;;;6.82;1.60;;;10.80;99.90;;;;;;4899623;29;20075;-65
2023/09/01 00:50:40;;;;;;;8.18;2.33;;;10.80;99.90;;;;;;4896675;29;20653;-65
2023/09/01 00:53:06;;;;;;;8.75;2.35;;;10.70;99.90;;;;;;4897228;29;20043;-65
2023/09/01 00:55:33;;;;;;;6.85;2.38;;;10.60;99.90;;;;;;4880897;29;20674;-65
2023/09/01 00:58:02;;;;;;;4.95;1.90;;;10.50;99.90;;;;;;4911058;29;20185;-65
2023/09/01 01:00:31;;;;;;;5.28;2.20;;;10.60;99.90;;;;;;4911713;29;20238;-65
2023/09/01 01:03:00;;;;;;;4.82;2.10;;;10.50;99.90;;;;;;4914704;29;20135;-65
2023/09/01 01:05:51;;;;;;;7.85;2.38;;;10.40;99.90;;;;;;4912551;29;20115;-65
2023/09/01 01:08:30;;;;;;;4.45;2.30;;;10.50;99.90;;;;;;4913494;29;20059;-65
2023/09/01 01:11:06;;;;;;;6.45;2.70;;;10.40;99.90;;;;;;4913354;29;20040;-65
2023/09/01 01:13:36;;;;;;;7.25;2.90;;;10.40;99.90;;;;;;4912258;29;20295;-65
2023/09/01 01:16:03;;;;;;;9.77;2.83;;;10.40;99.90;;;;;;4911881;29;20138;-65
2023/09/01 01:18:32;;;;;;;6.50;2.92;;;10.40;99.90;;;;;;4916164;29;20055;-65
2023/09/01 01:21:11;;;;;;;7.63;3.38;;;10.40;99.90;;;;;;4913374;29;20044;-65
2023/09/01 01:23:38;;;;;;;7.85;3.33;;;10.40;99.90;;;;;;4912885;29;20459;-65
2023/09/01 01:26:05;;;;;;;7.25;2.88;;;10.30;99.90;;;;;;4911914;29;20047;-65
2023/09/01 01:28:30;;;;;;;5.93;3.03;;;10.30;99.90;;;;;;4911745;29;20198;-65
2023/09/01 01:30:56;;;;;;;6.70;2.78;;;10.30;99.90;;;;;;4911838;29;20465;-64
2023/09/01 01:33:30;;;;;;;5.13;3.25;;;10.20;99.90;;;;;;4896673;29;20450;-64
2023/09/01 01:36:41;;;;;;;8.15;3.00;;;10.20;99.90;;;;;;4912249;29;20055;-65
2023/09/01 01:39:15;;;;;;;6.78;2.92;;;10.20;99.90;;;;;;4879921;29;20083;-65
2023/09/01 01:41:52;;;;;;;7.50;3.47;;;10.20;99.90;;;;;;4911830;29;20414;-65
2023/09/01 01:44:22;;;;;;;8.65;2.80;;;10.20;99.90;;;;;;4912074;29;20577;-65
2023/09/01 01:46:49;;;;;;;7.75;3.28;;;10.20;99.90;;;;;;4913688;29;20249;-65
2023/09/01 01:49:16;;;;;;;6.00;3.50;;;10.30;99.90;;;;;;4912639;29;20091;-65
2023/09/01 01:51:42;;;;;;;10.38;3.25;;;10.40;99.90;;;;;;4911813;29;20043;-65
2023/09/01 01:54:07;;;;;;;6.88;3.20;;;10.30;99.90;;;;;;4911686;29;20375;-65
2023/09/01 01:56:34;;;;;;;9.75;3.38;;;10.30;99.90;;;;;;4913541;29;20135;-65
2023/09/01 01:59:00;;;;;;;6.70;3.47;;;10.30;99.90;;;;;;4912358;29;20598;-65
2023/09/01 02:01:25;;;;;;;9.30;3.83;;;10.30;99.90;;;;;;4896385;29;20047;-65
2023/09/01 02:03:52;;;;;;;8.90;4.05;;;10.20;99.90;;;;;;4912254;29;20054;-65
2023/09/01 02:06:18;;;;;;;5.85;3.80;;;10.10;99.90;;;;;;4911776;29;20051;-65
2023/09/01 02:08:43;;;;;;;7.97;3.85;;;10.10;99.90;;;;;;4916373;29;20411;-65
2023/09/01 02:11:09;;;;;;;8.60;4.35;;;10.10;99.90;;;;;;4899742;29;20102;-66
2023/09/01 02:13:35;;;;;;;8.55;4.15;;;10.00;99.90;;;;;;4930840;28;20154;-66
2023/09/01 02:16:00;;;;;;;9.77;4.55;;;10.00;99.90;;;;;;4914842;29;20239;-66
2023/09/01 02:18:26;;;;;;;9.25;4.35;;;9.90;99.90;;;;;;4883746;29;20052;-65
2023/09/01 02:20:53;;;;;;;8.80;5.07;;;9.90;99.90;;;;;;4914773;29;20211;-65
2023/09/01 02:23:22;;;;;;;11.00;5.40;;;9.90;99.90;;;;;;4918936;29;20047;-65
2023/09/01 02:25:47;;;;;;;11.40;6.13;;;9.80;99.90;;;;;;4899082;29;20048;-66
2023/09/01 02:28:13;;;;;;;7.13;5.15;;;9.80;99.90;;;;;;4898856;29;20054;-65
2023/09/01 02:30:39;;;;;;;15.00;6.30;;;9.80;99.90;;;;;;4914655;29;20369;-65
2023/09/01 02:33:05;;;;;;;11.07;6.30;;;9.80;99.90;;;;;;4917115;29;20043;-65
2023/09/01 02:35:31;;;;;;;13.35;5.97;;;9.80;99.90;;;;;;4917655;29;20351;-65
2023/09/01 02:37:57;;;;;;;8.07;5.75;;;9.70;99.90;;;;;;4898321;29;20059;-65
2023/09/01 02:40:24;;;;;;;12.45;6.18;;;9.70;99.90;;;;;;4915940;29;20055;-66
2023/09/01 02:42:54;;;;;;;18.27;7.57;;;9.70;99.90;;;;;;4898891;29;20245;-65
2023/09/01 02:45:19;;;;;;;10.48;6.43;;;9.60;99.90;;;;;;4914792;29;20502;-65
2023/09/01 02:47:45;;;;;;;10.30;5.63;;;9.70;99.90;;;;;;4916451;29;20054;-65
2023/09/01 02:50:11;;;;;;;13.35;6.18;;;9.60;99.90;;;;;;4914801;29;20541;-65
2023/09/01 02:52:36;;;;;;;10.20;6.45;;;9.60;99.90;;;;;;4898691;29;20054;-65
2023/09/01 02:55:06;;;;;;;10.45;5.90;;;9.60;99.90;;;;;;4898129;29;20446;-65
2023/09/01 02:57:32;;;;;;;11.13;5.72;;;9.60;99.90;;;;;;4914248;29;20439;-65
2023/09/01 02:59:57;;;;;;;8.82;5.72;;;9.60;99.90;;;;;;4897928;29;20311;-65
2023/09/01 03:02:24;;;;;;;10.98;5.88;;;9.50;99.90;;;;;;4914790;29;20225;-65
2023/09/01 03:04:50;;;;;;;11.35;5.88;;;9.60;99.90;;;;;;4914990;29;20043;-65
2023/09/01 03:07:16;;;;;;;15.50;6.82;;;9.60;99.90;;;;;;4915977;29;20122;-66
2023/09/01 03:09:42;;;;;;;8.05;5.63;;;9.60;99.90;;;;;;4913714;29;20056;-66
2023/09/01 03:12:08;;;;;;;9.02;5.30;;;9.60;99.90;;;;;;4897650;29;20090;-65
2023/09/01 03:14:34;;;;;;;8.88;5.60;;;9.60;99.90;;;;;;4898613;29;20055;-65
2023/09/01 03:16:59;;;;;;;9.48;5.45;;;9.60;99.90;;;;;;4914899;29;20056;-65
2023/09/01 03:19:26;;;;;;;9.77;5.82;;;9.60;99.90;;;;;;4897897;29;20580;-65
2023/09/01 03:21:51;;;;;;;7.50;5.20;;;9.70;99.90;;;;;;4914001;29;20087;-66
2023/09/01 03:24:17;;;;;;;9.50;6.20;;;9.60;99.90;;;;;;4913654;29;20210;-65
2023/09/01 03:26:43;;;;;;;10.63;5.50;;;9.60;99.90;;;;;;4898548;29;20558;-65
2023/09/01 03:29:08;;;;;;;9.48;5.03;;;9.50;99.90;;;;;;4913464;29;20039;-65
2023/09/01 03:31:34;;;;;;;12.13;5.78;;;9.60;99.90;;;;;;4914131;29;20074;-65
2023/09/01 03:34:00;;;;;;;10.02;5.55;;;9.50;99.90;;;;;;4898219;29;20288;-65
2023/09/01 03:36:26;;;;;;;12.40;6.07;;;9.50;99.90;;;;;;4913759;29;20052;-65
2023/09/01 03:38:54;;;;;;;11.80;6.63;;;9.60;99.90;;;;;;4897888;29;20138;-65
2023/09/01 03:41:20;;;;;;;9.50;5.45;;;9.40;99.90;;;;;;4915437;29;20043;-65
2023/09/01 03:43:45;;;;;;;9.75;5.78;;;9.40;99.90;;;;;;4897756;29;20043;-66
2023/09/01 03:46:11;;;;;;;14.43;6.38;;;9.60;1.00;;;;;;4900153;29;20122;-65
2023/09/01 03:48:37;;;;;;;10.27;6.15;;;9.60;1.00;;;;;;4913946;29;20090;-65
2023/09/01 03:51:07;;;;;;;12.18;6.22;;;9.50;1.00;;;;;;4913119;29;20759;-65
2023/09/01 03:53:33;;;;;;;10.77;5.40;;;9.60;1.00;;;;;;4913053;29;20506;-64
2023/09/01 03:56:13;;;;;;;10.95;6.28;;;9.50;1.00;;;;;;4913252;29;20118;-65
2023/09/01 03:58:39;;;;;;;9.48;5.57;;;9.50;1.00;;;;;;4913254;29;20357;-65
2023/09/01 04:01:08;;;;;;;10.93;6.25;;;9.40;1.00;;;;;;4896769;29;20040;-64
2023/09/01 04:03:52;;;;;;;9.15;5.88;;;9.30;1.00;;;;;;4912447;29;20481;-65
2023/09/01 04:06:18;;;;;;;11.98;7.50;;;9.50;1.00;;;;;;4914271;29;20091;-65
2023/09/01 04:08:43;;;;;;;12.23;6.70;;;9.50;1.00;;;;;;4912791;29;20052;-65
2023/09/01 04:11:09;;;;;;;11.77;6.63;;;9.50;1.00;;;;;;4914688;29;20048;-65
2023/09/01 04:13:36;;;;;;;11.73;7.03;;;9.50;1.00;;;;;;4899589;29;20050;-65
2023/09/01 04:16:02;;;;;;;10.95;7.35;;;9.50;1.00;;;;;;4914134;29;20502;-65
2023/09/01 04:18:28;;;;;;;14.15;7.15;;;9.40;99.90;;;;;;4912440;29;20455;-65
2023/09/01 04:20:54;;;;;;;13.60;6.95;;;9.30;99.90;;;;;;4911739;29;20365;-65
2023/09/01 04:23:20;;;;;;;14.48;7.95;;;9.50;99.90;;;;;;4912549;29;20418;-65
2023/09/01 04:25:47;;;;;;;11.32;7.30;;;9.30;1.00;;;;;;4913004;29;20158;-65
2023/09/01 04:28:13;;;;;;;14.20;7.85;;;9.40;1.00;;;;;;4899233;29;20067;-65
2023/09/01 04:30:39;;;;;;;12.48;7.03;;;9.30;1.00;;;;;;4912519;29;20094;-64
2023/09/01 04:33:06;;;;;;;13.50;7.22;;;9.40;1.00;;;;;;4912265;29;20051;-64
2023/09/01 04:35:32;;;;;;;15.48;7.32;;;9.20;1.00;;;;;;4913136;29;20745;-64
2023/09/01 04:37:58;;;;;;;14.05;6.85;;;9.20;1.00;;;;;;4914201;29;20050;-64
2023/09/01 04:40:25;;;;;;;13.50;7.35;;;9.30;1.00;;;;;;4897192;29;20036;-64
2023/09/01 04:42:51;;;;;;;14.82;7.07;;;9.20;1.00;;;;;;4912182;29;20170;-64
2023/09/01 04:45:17;;;;;;;12.57;7.13;;;9.30;1.00;;;;;;4897231;29;20039;-64
2023/09/01 04:47:43;;;;;;;12.23;7.25;;;9.10;1.00;;;;;;4912228;29;20055;-64
2023/09/01 04:50:09;;;;;;;13.85;7.47;;;9.30;1.00;;;;;;4911971;29;20114;-64
2023/09/01 04:52:36;;;;;;;15.80;7.75;;;9.20;1.00;;;;;;4912991;29;20525;-64
2023/09/01 04:55:03;;;;;;;14.40;7.07;;;9.20;1.00;;;;;;4913462;29;20040;-64
2023/09/01 04:57:29;;;;;;;12.43;7.22;;;9.10;1.00;;;;;;4911961;29;20050;-64
2023/09/01 04:59:54;;;;;;;12.23;7.60;;;9.20;1.00;;;;;;4912472;29;20039;-64
2023/09/01 05:02:20;;;;;;;14.35;7.85;;;9.40;1.00;;;;;;4879967;29;20040;-63
2023/09/01 05:04:45;;;;;;;15.25;7.93;;;9.30;1.00;;;;;;4913018;29;20718;-63
2023/09/01 05:07:11;;;;;;;13.32;7.63;;;9.40;1.00;;;;;;4911392;29;20094;-63
2023/09/01 05:09:37;;;;;;;14.02;6.97;;;9.40;1.00;;;;;;4896857;29;20055;-64
2023/09/01 05:12:03;;;;;;;11.85;6.47;;;9.30;1.00;;;;;;4895993;29;20092;-64
2023/09/01 05:14:28;;;;;;;12.77;6.00;;;9.30;1.00;;;;;;4911886;29;20043;-64
2023/09/01 05:16:56;;;;;;;9.73;6.57;;;9.40;1.00;;;;;;4896022;29;20059;-64
2023/09/01 05:19:22;;;;;;;12.52;7.18;;;9.30;1.00;;;;;;4913039;29;20074;-65
2023/09/01 05:21:48;;;;;;;10.20;6.60;;;9.40;1.00;;;;;;4914651;29;20059;-64
2023/09/01 05:24:14;;;;;;;11.13;6.20;;;9.40;1.00;;;;;;4914899;29;20104;-64
2023/09/01 05:26:40;;;;;;;10.57;6.47;;;9.40;3.40;;;;;;4916170;29;20039;-64
2023/09/01 05:29:06;;;;;;;9.70;6.05;;;9.50;25.70;;;;;;4913922;29;20040;-64
2023/09/01 05:31:32;;;;;;;7.30;5.75;;;9.50;41.80;;;;;;4911405;29;20451;-64
2023/09/01 05:33:57;;;;;;;14.25;6.03;;;9.60;50.90;;;;;;4911677;29;20131;-64
2023/09/01 05:36:23;;;;;;;11.45;6.40;;;9.70;55.10;;;;;;4911611;29;20054;-65
2023/09/01 05:38:49;;;;;;;12.35;6.63;;;9.80;71.40;;;;;;4911879;29;20300;-64
2023/09/01 05:41:14;;;;;;;11.13;6.90;;;9.70;99.90;;;;;;4913609;29;20497;-64
2023/09/01 05:43:40;;;;;;;10.30;6.60;;;10.10;99.90;;;;;;4915321;28;20165;-64
2023/09/01 05:46:06;;;;;;;9.23;6.45;;;10.40;99.90;;;;;;4901554;29;20218;-64
2023/09/01 05:48:32;;;;;;;11.30;5.88;;;10.80;99.90;;;;;;4916639;29;20040;-65
2023/09/01 05:50:57;;;;;;;8.15;4.90;;;11.10;99.90;;;;;;4899883;29;20135;-65
2023/09/01 05:53:23;;;;;;;7.93;4.18;;;11.60;99.90;;;;;;4916710;29;20043;-65
2023/09/01 05:55:49;;;;;;;6.85;3.63;;;11.90;99.90;;;;;;4919311;29;20324;-65
2023/09/01 05:58:14;;;;;;;4.93;2.92;;;12.20;99.90;;;;;;4899057;29;20065;-65
2023/09/01 06:00:40;;;;;;;7.97;3.08;;;12.30;34.30;;;;;;4914680;29;20035;-65
2023/09/01 06:03:06;;;;;;;6.63;2.88;;;12.40;99.90;;;;;;4916998;29;20052;-65
2023/09/01 06:05:32;;;;;;;5.05;2.08;;;12.70;99.90;;;;;;4915415;29;20040;-63
2023/09/01 06:07:58;;;;;;;4.78;1.80;;;13.00;99.90;;;;;;4913967;29;20047;-63
2023/09/01 06:10:23;;;;;;;3.63;1.80;;;13.20;99.90;;;;;;4916450;29;20345;-63
2023/09/01 06:12:49;;;;;;;4.68;1.75;;;13.50;99.90;;;;;;4900152;29;20075;-63
2023/09/01 06:15:15;;;;;;;3.42;1.60;;;13.50;1.00;;;;;;4913176;29;20048;-63
2023/09/01 06:17:40;;;;;;;4.13;1.77;;;13.70;1.00;;;;;;4914039;29;20410;-65
2023/09/01 06:20:07;;;;;;;7.40;1.83;;;13.80;1.00;;;;;;4914414;29;20314;-63
2023/09/01 06:22:33;;;;;;;4.90;1.60;;;13.80;11.70;;;;;;4915990;29;20090;-63
2023/09/01 06:24:59;;;;;;;3.30;1.45;;;14.00;99.90;;;;;;4915810;29;20322;-63
2023/09/01 06:27:24;;;;;;;5.72;1.52;;;14.20;1.00;;;;;;4898325;29;20062;-65
2023/09/01 06:29:50;;;;;;;7.88;1.20;;;14.30;1.00;;;;;;4916438;29;20352;-64
2023/09/01 06:32:16;;;;;;;4.63;1.63;;;14.60;1.00;;;;;;4914557;29;20040;-64
2023/09/01 06:34:42;;;;;;;8.00;1.55;;;14.70;1.00;;;;;;4914249;29;20048;-64
2023/09/01 06:37:08;;;;;;;4.57;1.40;;;14.70;1.00;;;;;;4914457;29;20051;-64
2023/09/01 06:39:34;;;;;;;5.05;1.58;;;14.80;99.90;;;;;;4883440;29;20357;-64
2023/09/01 06:41:59;;;;;;;3.95;1.52;;;15.10;1.00;;;;;;4914128;29;20051;-64
2023/09/01 06:44:25;;;;;;;6.07;1.17;;;15.20;99.90;;;;;;4915685;29;20734;-64
2023/09/01 06:46:51;;;;;;;5.05;1.33;;;15.30;99.90;;;;;;4915200;29;20572;-64
2023/09/01 06:49:17;;;;;;;7.13;1.17;;;15.70;99.90;;;;;;4898566;29;20053;-64
2023/09/01 06:51:42;;;;;;;5.55;1.50;;;15.90;99.90;;;;;;4914508;29;20047;-65
2023/09/01 06:54:08;;;;;;;6.18;1.42;;;16.30;99.90;;;;;;4913349;28;20139;-64
2023/09/01 06:56:34;;;;;;;4.97;1.17;;;16.60;99.90;;;;;;4914113;29;20411;-64
2023/09/01 06:58:59;;;;;;;5.18;1.10;;;16.80;99.90;;;;;;4913713;29;20105;-64
2023/09/01 07:01:27;;;;;;;4.00;0.90;;;17.30;99.90;;;;;;4913995;29;20896;-64
2023/09/01 07:03:54;;;;;;;3.40;0.65;;;17.60;99.90;;;;;;4913840;29;20058;-64
2023/09/01 07:06:20;;;;;;;2.78;0.60;;;18.00;99.90;;;;;;4898392;29;20070;-64
2023/09/01 07:08:45;;;;;;;3.92;0.55;;;18.20;42.00;;;;;;4883188;29;20130;-64
2023/09/01 07:11:14;;;;;;;2.70;0.70;;;18.30;99.90;;;;;;4914287;29;20048;-64
2023/09/01 07:13:40;;;;;;;5.47;0.70;;;18.00;1.00;;;;;;4913656;29;20040;-64
2023/09/01 07:16:06;;;;;;;2.17;0.65;;;18.00;1.00;;;;;;4912266;29;20490;-64
2023/09/01 07:18:32;;;;;;;2.17;0.52;;;18.20;1.00;;;;;;4910651;29;20228;-65
2023/09/01 07:20:59;;;;;;;4.60;0.70;;;18.40;99.90;;;;;;4916058;29;20129;-64
2023/09/01 07:23:26;;;;;;;4.57;0.70;;;18.50;99.90;;;;;;4914742;29;20044;-64
2023/09/01 07:25:55;;;;;;;3.45;0.57;;;18.30;99.90;;;;;;4899083;29;20052;-64
2023/09/01 07:28:22;;;;;;;2.58;0.50;;;18.40;99.90;;;;;;4913891;29;20051;-64
2023/09/01 07:30:48;;;;;;;2.58;0.50;;;18.70;99.90;;;;;;4914280;29;20105;-64
2023/09/01 07:33:15;;;;;;;2.45;0.50;;;19.00;99.90;;;;;;4882028;29;20119;-64
2023/09/01 07:35:49;;;;;;;3.63;0.50;;;19.30;99.90;;;;;;4914647;29;20288;-64
2023/09/01 07:38:15;;;;;;;2.45;0.45;;;19.40;1.00;;;;;;4915991;29;20523;-65
2023/09/01 07:40:42;;;;;;;3.47;0.50;;;19.70;1.00;;;;;;4916304;29;20086;-63
2023/09/01 07:43:08;;;;;;;3.75;0.60;;;19.70;1.00;;;;;;4914096;29;20134;-64
2023/09/01 07:45:34;;;;;;;2.45;0.57;;;19.50;99.90;;;;;;4914166;29;20047;-63
2023/09/01 07:48:00;;;;;;;2.97;0.50;;;19.70;99.90;;;;;;4914281;29;20051;-65
2023/09/01 07:50:30;;;;;;;2.45;0.70;;;19.90;99.90;;;;;;4914666;29;20048;-63
2023/09/01 07:52:56;;;;;;;4.47;0.60;;;20.10;99.90;;;;;;4913894;29;20278;-64
2023/09/01 07:55:22;;;;;;;2.72;0.63;;;20.00;99.90;;;;;;4929410;29;20377;-64
2023/09/01 07:57:48;;;;;;;6.22;0.50;;;20.20;99.90;;;;;;4897537;29;20202;-64
2023/09/01 08:00:14;;;;;;;4.20;0.70;;;20.60;99.90;;;;;;4915710;29;20328;-65
2023/09/01 08:02:40;;;;;;;5.78;0.50;;;20.90;99.90;;;;;;4897587;29;20073;-64
2023/09/01 08:05:06;;;;;;;6.03;0.60;;;21.00;99.90;;;;;;4898550;29;20063;-65
2023/09/01 08:07:32;;;;;;;2.40;0.65;;;21.30;30.00;;;;;;4913233;29;20158;-65
2023/09/01 08:09:58;;;;;;;6.63;0.80;;;21.30;99.90;;;;;;4913286;29;20047;-65
2023/09/01 08:12:25;;;;;;;3.42;0.80;;;21.30;99.90;;;;;;4912971;29;20278;-64
2023/09/01 08:14:51;;;;;;;2.75;0.70;;;21.10;96.60;;;;;;4914202;29;20052;-64
2023/09/01 08:17:17;;;;;;;2.63;0.60;;;20.80;66.30;;;;;;4912183;29;20287;-64
2023/09/01 08:19:49;;;;;;;2.97;0.60;;;20.60;99.90;;;;;;4913629;29;20051;-64
2023/09/01 08:22:16;;;;;;;2.72;0.65;;;20.40;1.00;;;;;;4915139;29;20047;-64
2023/09/01 08:24:42;;;;;;;2.63;0.70;;;20.30;99.90;;;;;;4913735;29;20479;-64
2023/09/01 08:27:08;;;;;;;3.88;0.55;;;19.90;99.90;;;;;;4915108;29;20043;-65
2023/09/01 08:29:34;;;;;;;4.50;0.57;;;19.60;1.00;;;;;;4896027;29;20418;-65
2023/09/01 08:32:00;;;;;;;3.13;0.50;;;19.80;49.20;;;;;;4914485;29;20039;-65
2023/09/01 08:34:27;;;;;;;2.22;0.70;;;19.90;1.00;;;;;;4914387;29;20403;-65
2023/09/01 08:36:53;;;;;;;3.08;0.40;;;19.70;1.00;;;;;;4913698;29;20086;-65
2023/09/01 08:39:19;;;;;;;1.75;0.43;;;19.90;99.90;;;;;;4915204;29;20126;-65
2023/09/01 08:41:47;;;;;;;4.00;0.60;;;20.20;91.50;;;;;;4913591;29;20418;-66
2023/09/01 08:44:14;;;;;;;4.55;0.70;;;20.30;99.90;;;;;;4914017;29;20036;-66
2023/09/01 08:46:40;;;;;;;3.40;0.50;;;20.30;64.90;;;;;;4914018;29;20170;-66
2023/09/01 08:49:06;;;;;;;1.83;0.50;;;20.10;99.90;;;;;;4914450;29;20095;-66
2023/09/01 08:51:32;;;;;;;3.22;0.63;;;19.90;99.90;;;;;;4913195;29;20208;-66
2023/09/01 08:53:59;;;;;;;4.47;0.70;;;19.70;99.90;;;;;;4913878;29;20140;-66
2023/09/01 08:56:25;;;;;;;3.47;0.43;;;19.80;99.90;;;;;;4913611;29;20047;-66
2023/09/01 08:58:51;;;;;;;2.22;0.47;;;19.60;99.90;;;;;;4914869;29;20050;-66
2023/09/01 09:01:16;;;;;;;2.42;0.50;;;19.70;99.90;;;;;;4915900;29;20111;-66
2023/09/01 09:03:42;;;;;;;2.10;0.60;;;19.50;1.00;;;;;;4913978;29;20424;-65
2023/09/01 09:06:12;;;;;;;3.03;0.60;;;19.40;99.90;;;;;;4913812;29;20248;-65
2023/09/01 09:08:38;;;;;;;4.95;0.70;;;19.30;99.90;;;;;;4913536;29;20142;-66
2023/09/01 09:11:13;;;;;;;2.83;0.47;;;19.10;99.90;;;;;;4897777;29;20405;-66
2023/09/01 09:13:40;;;;;;;3.60;0.50;;;19.30;1.00;;;;;;4913860;29;20230;-65
2023/09/01 09:16:15;;;;;;;3.15;0.50;;;19.40;99.90;;;;;;4913346;29;20139;-66
2023/09/01 09:18:44;;;;;;;5.63;0.93;;;19.50;99.90;;;;;;4916089;28;20385;-66
2023/09/01 09:21:30;;;;;;;4.43;0.65;;;19.50;99.90;;;;;;4900806;29;20424;-66
2023/09/01 09:23:58;;;;;;;3.85;0.75;;;19.40;99.90;;;;;;4901393;29;20052;-65
2023/09/01 09:26:28;;;;;;;4.22;1.00;;;19.20;99.90;;;;;;4917286;29;20063;-66
2023/09/01 09:28:54;;;;;;;5.53;0.95;;;19.00;99.90;;;;;;4918573;29;20052;-66
2023/09/01 09:31:33;;;;;;;5.55;0.80;;;18.90;99.90;;;;;;4918794;29;20455;-65
2023/09/01 09:34:13;;;;;;;4.95;0.70;;;18.80;99.90;;;;;;4902075;29;20668;-65
2023/09/01 09:36:38;;;;;;;5.50;0.70;;;18.80;99.90;;;;;;4933944;29;20316;-65
2023/09/01 09:39:07;;;;;;;4.53;0.75;;;18.70;99.90;;;;;;4900730;29;20090;-65
2023/09/01 09:41:46;;;;;;;4.88;0.90;;;18.60;99.90;;;;;;4917306;29;20375;-65
2023/09/01 09:44:12;;;;;;;4.35;0.50;;;18.60;99.90;;;;;;4918941;29;20677;-66
2023/09/01 09:46:44;;;;;;;2.85;0.40;;;18.60;99.90;;;;;;4918850;28;20048;-65
2023/09/01 09:49:14;;;;;;;3.97;0.60;;;18.60;99.90;;;;;;4918322;29;20043;-64
2023/09/01 09:51:41;;;;;;;3.55;0.52;;;18.70;99.90;;;;;;4921180;29;20079;-65
2023/09/01 09:54:10;;;;;;;3.05;0.60;;;18.80;99.90;;;;;;4932424;29;20264;-65
2023/09/01 09:56:38;;;;;;;5.95;0.60;;;19.00;99.90;;;;;;4917518;29;20648;-66
2023/09/01 09:59:05;;;;;;;1.65;0.70;;;19.20;99.90;;;;;;4931517;29;20043;-66
2023/09/01 10:01:39;;;;;;;3.97;0.93;;;19.30;99.90;;;;;;4916586;29;20036;-66
2023/09/01 10:04:06;;;;;;;2.90;0.60;;;19.50;99.90;;;;;;4918430;29;20127;-66
2023/09/01 10:06:36;;;;;;;4.03;0.80;;;19.60;99.90;;;;;;4916729;29;20051;-66
2023/09/01 10:09:04;;;;;;;1.60;0.38;;;19.50;99.90;;;;;;4930741;29;20054;-66
2023/09/01 10:11:30;;;;;;;0.90;0.30;;;19.50;66.70;;;;;;4916599;29;20430;-64
2023/09/01 10:13:57;;;;;;;2.85;0.65;;;19.50;24.90;;;;;;4916976;29;20546;-64
2023/09/01 10:16:23;;;;;;;2.38;0.30;;;19.40;1.00;;;;;;4918221;29;20070;-64
2023/09/01 10:18:49;;;;;;;1.92;0.30;;;19.20;1.00;;;;;;4900411;29;20071;-64
2023/09/01 10:21:16;;;;;;;3.13;0.30;;;19.30;1.00;;;;;;4932406;29;20460;-66
2023/09/01 10:23:43;;;;;;;2.35;0.30;;;19.40;1.00;;;;;;4916712;29;20051;-66
2023/09/01 10:26:29;;;;;;;2.15;0.32;;;19.40;1.00;;;;;;4916077;29;20098;-66
2023/09/01 10:29:00;;;;;;;3.10;0.60;;;19.60;1.00;;;;;;4916997;29;20212;-66
2023/09/01 10:31:26;;;;;;;2.28;0.60;;;19.50;76.40;;;;;;4909851;29;20280;-67
2023/09/01 10:34:12;;;;;;;2.00;0.40;;;19.80;37.10;;;;;;4900700;29;20059;-65
2023/09/01 10:36:43;;;;;;;2.80;0.43;;;20.00;1.00;;;;;;4900341;29;20062;-66
2023/09/01 10:39:21;;;;;;;1.80;0.30;;;20.40;1.00;;;;;;4917858;29;20082;-66
2023/09/01 10:41:59;;;;;;;3.45;1.05;;;20.60;1.00;;;;;;4900375;29;20493;-66
2023/09/01 10:44:42;;;;;;;3.30;0.93;;;21.00;1.00;;;;;;4916224;29;20082;-66
2023/09/01 10:47:31;;;;;;;4.70;1.60;;;21.20;1.00;;;;;;4918173;29;20483;-66
2023/09/01 10:50:01;;;;;;;4.25;0.90;;;21.00;1.00;;;;;;4906155;29;20513;-66
2023/09/01 10:52:28;;;;;;;4.13;0.90;;;20.70;1.00;;;;;;4915192;29;20304;-65
2023/09/01 10:54:59;;;;;;;3.95;0.55;;;20.50;1.00;;;;;;4915398;29;20031;-65
2023/09/01 10:58:07;;;;;;;3.05;0.50;;;20.40;1.00;;;;;;4933149;28;20391;-65
2023/09/01 11:00:34;;;;;;;3.08;0.60;;;20.30;1.00;;;;;;4882491;29;20055;-66
2023/09/01 11:03:30;;;;;;;3.83;0.60;;;20.50;1.00;;;;;;4914742;29;20047;-65
2023/09/01 11:06:02;;;;;;;1.88;0.43;;;20.60;1.00;;;;;;4915261;29;20047;-66
2023/09/01 11:08:28;;;;;;;3.25;0.40;;;20.80;1.00;;;;;;4915385;29;20289;-66
2023/09/01 11:11:00;;;;;;;3.42;0.65;;;21.30;1.00;;;;;;4899512;29;20506;-66
2023/09/01 11:13:26;;;;;;;2.10;0.50;;;21.80;1.00;;;;;;4914936;29;20054;-65
2023/09/01 11:15:52;;;;;;;3.85;0.45;;;22.50;1.00;;;;;;4915132;29;20184;-65
2023/09/01 11:18:23;;;;;;;2.08;0.35;;;22.90;1.00;;;;;;4914291;29;20091;-65
2023/09/01 11:20:54;;;;;;;2.38;0.38;;;23.00;1.00;;;;;;4915954;29;20060;-65
2023/09/01 11:23:21;;;;;;;3.75;0.50;;;23.50;18.70;;;;;;4915557;29;20083;-65
2023/09/01 11:25:57;;;;;;;2.58;0.40;;;23.60;1.00;;;;;;4915362;29;20380;-64
2023/09/01 11:28:25;;;;;;;2.53;0.40;;;23.70;99.90;;;;;;4916855;29;20698;-66
2023/09/01 11:30:52;;;;;;;5.78;0.50;;;23.50;80.20;;;;;;4915187;29;20047;-64
2023/09/01 11:33:22;;;;;;;2.38;0.50;;;23.10;99.90;;;;;;4899511;29;20039;-64
2023/09/01 11:35:49;;;;;;;2.90;1.00;;;23.20;94.10;;;;;;4883774;29;20055;-65
2023/09/01 11:38:21;;;;;;;3.17;0.60;;;22.70;99.80;;;;;;4914637;29;20065;-65
2023/09/01 11:40:50;;;;;;;3.30;0.50;;;23.00;99.90;;;;;;4916099;29;20048;-65
2023/09/01 11:43:16;;;;;;;3.38;0.50;;;22.80;53.20;;;;;;4915469;29;20044;-64
2023/09/01 11:45:46;;;;;;;2.45;0.40;;;22.60;1.00;;;;;;4914079;29;20272;-65
2023/09/01 11:48:12;;;;;;;2.10;0.35;;;22.70;1.00;;;;;;4914259;29;20062;-64
2023/09/01 11:50:43;;;;;;;3.70;0.40;;;22.80;87.80;;;;;;4914081;29;20089;-64
2023/09/01 11:53:09;;;;;;;3.92;0.40;;;23.50;1.00;;;;;;4915250;29;20447;-65
2023/09/01 11:55:43;;;;;;;1.67;0.30;;;24.30;1.00;;;;;;4897941;29;20497;-64
2023/09/01 11:58:08;;;;;;;1.58;0.30;;;25.00;7.70;;;;;;4915161;29;20318;-65
2023/09/01 12:00:38;;;;;;;4.03;0.50;;;25.80;8.10;;;;;;4914955;29;20040;-65
2023/09/01 12:03:05;;;;;;;2.83;0.30;;;25.20;3.10;;;;;;4898936;29;20612;-65
2023/09/01 12:05:40;;;;;;;2.97;0.35;;;25.40;1.00;;;;;;4915250;29;20040;-64
2023/09/01 12:08:09;;;;;;;2.35;0.20;;;25.40;8.90;;;;;;4914149;29;20047;-65
2023/09/01 12:10:34;;;;;;;1.52;0.25;;;25.60;16.20;;;;;;4914057;29;20103;-65
2023/09/01 12:13:11;;;;;;;2.78;0.22;;;25.60;73.70;;;;;;4897324;29;20139;-66
2023/09/01 12:16:00;;;;;;;1.95;0.30;;;25.20;57.60;;;;;;4929254;28;20054;-65
2023/09/01 12:18:26;;;;;;;2.90;0.30;;;24.90;28.50;;;;;;4914516;29;20054;-65
2023/09/01 12:20:52;;;;;;;2.20;0.20;;;24.70;80.50;;;;;;4929816;28;20059;-65
2023/09/01 12:23:38;;;;;;;2.00;0.30;;;24.40;66.10;;;;;;4897848;29;20380;-65
2023/09/01 12:26:04;;;;;;;2.85;0.40;;;24.20;70.00;;;;;;4913891;29;20040;-66
2023/09/01 12:28:33;;;;;;;3.03;0.30;;;24.20;68.40;;;;;;4916049;29;20059;-66
2023/09/01 12:31:00;;;;;;;2.20;0.30;;;24.10;86.60;;;;;;4913189;29;20058;-65
2023/09/01 12:33:25;;;;;;;3.50;0.40;;;24.00;69.20;;;;;;4913179;29;20083;-65
2023/09/01 12:35:52;;;;;;;3.70;0.30;;;23.90;80.70;;;;;;4913005;29;20123;-65
2023/09/01 12:38:18;;;;;;;2.92;0.30;;;23.80;99.90;;;;;;4899261;29;20724;-66
2023/09/01 12:40:44;;;;;;;4.28;0.30;;;24.20;99.90;;;;;;4914845;29;20569;-65
2023/09/01 12:43:10;;;;;;;2.15;0.25;;;24.10;99.90;;;;;;4914257;29;20532;-65
2023/09/01 12:45:36;;;;;;;1.25;0.30;;;24.50;99.90;;;;;;4912609;29;20039;-65
2023/09/01 12:48:03;;;;;;;2.70;0.30;;;24.80;98.80;;;;;;4912561;29;20064;-65
2023/09/01 12:50:30;;;;;;;1.67;0.30;;;25.20;49.80;;;;;;4912665;29;20056;-66
2023/09/01 12:52:56;;;;;;;1.92;0.35;;;25.20;93.90;;;;;;4912093;28;20339;-65
2023/09/01 12:55:23;;;;;;;3.47;0.32;;;25.30;72.50;;;;;;4913465;29;20047;-66